地図

経路データ

SID SEASON NUMBER BASIN SUBBASIN NAME ISO_TIME NATURE LAT LON WMO_WIND WMO_PRES WMO_AGENCY TRACK_TYPE DIST2LAND LANDFALL IFLAG USA_AGENCY USA_ATCF_ID USA_LAT USA_LON USA_RECORD USA_STATUS USA_WIND USA_PRES USA_SSHS USA_R34_NE USA_R34_SE USA_R34_SW USA_R34_NW USA_R50_NE USA_R50_SE USA_R50_SW USA_R50_NW USA_R64_NE USA_R64_SE USA_R64_SW USA_R64_NW USA_POCI USA_ROCI USA_RMW USA_EYE TOKYO_LAT TOKYO_LON TOKYO_GRADE TOKYO_WIND TOKYO_PRES TOKYO_R50_DIR TOKYO_R50_LONG TOKYO_R50_SHORT TOKYO_R30_DIR TOKYO_R30_LONG TOKYO_R30_SHORT TOKYO_LAND CMA_LAT CMA_LON CMA_CAT CMA_WIND CMA_PRES HKO_LAT HKO_LON HKO_CAT HKO_WIND HKO_PRES NEWDELHI_LAT NEWDELHI_LON NEWDELHI_GRADE NEWDELHI_WIND NEWDELHI_PRES NEWDELHI_CI NEWDELHI_DP NEWDELHI_POCI REUNION_LAT REUNION_LON REUNION_TYPE REUNION_WIND REUNION_PRES REUNION_TNUM REUNION_CI REUNION_RMW REUNION_R34_NE REUNION_R34_SE REUNION_R34_SW REUNION_R34_NW REUNION_R50_NE REUNION_R50_SE REUNION_R50_SW REUNION_R50_NW REUNION_R64_NE REUNION_R64_SE REUNION_R64_SW REUNION_R64_NW BOM_LAT BOM_LON BOM_TYPE BOM_WIND BOM_PRES BOM_TNUM BOM_CI BOM_RMW BOM_R34_NE BOM_R34_SE BOM_R34_SW BOM_R34_NW BOM_R50_NE BOM_R50_SE BOM_R50_SW BOM_R50_NW BOM_R64_NE BOM_R64_SE BOM_R64_SW BOM_R64_NW BOM_ROCI BOM_POCI BOM_EYE BOM_POS_METHOD BOM_PRES_METHOD NADI_LAT NADI_LON NADI_CAT NADI_WIND NADI_PRES WELLINGTON_LAT WELLINGTON_LON WELLINGTON_WIND WELLINGTON_PRES DS824_LAT DS824_LON DS824_STAGE DS824_WIND DS824_PRES TD9636_LAT TD9636_LON TD9636_STAGE TD9636_WIND TD9636_PRES TD9635_LAT TD9635_LON TD9635_WIND TD9635_PRES TD9635_ROCI NEUMANN_LAT NEUMANN_LON NEUMANN_CLASS NEUMANN_WIND NEUMANN_PRES MLC_LAT MLC_LON MLC_CLASS MLC_WIND MLC_PRES USA_GUST BOM_GUST BOM_GUST_PER REUNION_GUST REUNION_GUST_PER USA_SEAHGT USA_SEARAD_NE USA_SEARAD_SE USA_SEARAD_SW USA_SEARAD_NW STORM_SPEED STORM_DIR
1994134N05161 1994 33 WP MM NOT_NAMED 1994-05-14 00:00:00 NR 5.10000 161.000 main 1359 1337 O_____________ jtwc_wp WP041994 5.10000 161.000 15 -1 7 280
1994134N05161 1994 33 WP MM NOT_NAMED 1994-05-14 03:00:00 NR 5.16005 160.648 main 1338 1317 P_____________ WP041994 5.16005 160.648 15 -1 7 278
1994134N05161 1994 33 WP MM NOT_NAMED 1994-05-14 06:00:00 NR 5.20000 160.300 main 1317 1296 O_____________ jtwc_wp WP041994 5.20000 160.300 15 -1 7 274
1994134N05161 1994 33 WP MM NOT_NAMED 1994-05-14 09:00:00 NR 5.20747 159.957 main 1296 1269 P_____________ WP041994 5.20747 159.957 15 -1 7 270
1994134N05161 1994 33 WP MM NOT_NAMED 1994-05-14 12:00:00 NR 5.20000 159.600 main 1269 1243 O_____________ jtwc_wp WP041994 5.20000 159.600 15 -1 7 270
1994134N05161 1994 33 WP MM NOT_NAMED 1994-05-14 15:00:00 NR 5.20747 159.215 main 1243 1216 P_____________ WP041994 5.20747 159.215 15 -1 8 270
1994134N05161 1994 33 WP MM NOT_NAMED 1994-05-14 18:00:00 NR 5.20000 158.800 main 1216 1189 O_____________ jtwc_wp WP041994 5.20000 158.800 15 -1 9 266
1994134N05161 1994 33 WP MM NOT_NAMED 1994-05-14 21:00:00 NR 5.14998 158.357 main 1180 1147 P_____________ WP041994 5.14998 158.357 15 -1 9 264
1994134N05161 1994 33 WP MM NOT_NAMED 1994-05-15 00:00:00 NR 5.10000 157.900 main 1147 1122 O_____________ jtwc_wp WP041994 5.10000 157.900 15 -1 9 266
1994134N05161 1994 33 WP MM NOT_NAMED 1994-05-15 03:00:00 NR 5.09247 157.450 main 1122 1093 P_____________ WP041994 5.09247 157.450 15 -1 9 270
1994134N05161 1994 33 WP MM NOT_NAMED 1994-05-15 06:00:00 NR 5.10000 157.000 main 1093 1070 O_____________ jtwc_wp WP041994 5.10000 157.000 15 -1 9 270
1994134N05161 1994 33 WP MM NOT_NAMED 1994-05-15 09:00:00 NR 5.09245 156.557 main 1070 1041 P_____________ WP041994 5.09245 156.557 15 -1 9 270
1994134N05161 1994 33 WP MM NOT_NAMED 1994-05-15 12:00:00 NR 5.10000 156.100 main 1041 1015 O_____________ jtwc_wp WP041994 5.10000 156.100 15 -1 9 273
1994134N05161 1994 33 WP MM NOT_NAMED 1994-05-15 15:00:00 NR 5.14248 155.608 main 1015 1000 P_____________ WP041994 5.14248 155.608 15 -1 10 276
1994134N05161 1994 33 WP MM NOT_NAMED 1994-05-15 18:00:00 NR 5.20000 155.100 main 1000 976 O_____________ jtwc_wp WP041994 5.20000 155.100 15 -1 10 276
1994134N05161 1994 33 WP MM NOT_NAMED 1994-05-15 21:00:00 NR 5.24998 154.593 main 976 964 P_____________ WP041994 5.24998 154.593 15 -1 10 276
1994134N05161 1994 33 WP MM NOT_NAMED 1994-05-16 00:00:00 NR 5.30000 154.100 main 964 949 O_____________ jtwc_wp WP041994 5.30000 154.100 15 -1 10 275
1994134N05161 1994 33 WP MM NOT_NAMED 1994-05-16 03:00:00 NR 5.33495 153.642 main 945 941 P_____________ WP041994 5.33495 153.642 15 -1 9 276
1994134N05161 1994 33 WP MM NOT_NAMED 1994-05-16 06:00:00 NR 5.40000 153.200 main 943 937 O_____________ jtwc_wp WP041994 5.40000 153.200 15 -1 9 282
1994134N05161 1994 33 WP MM NOT_NAMED 1994-05-16 09:00:00 NR 5.51995 152.757 main 942 940 P_____________ WP041994 5.51995 152.757 15 -1 9 289
1994134N05161 1994 33 WP MM NOT_NAMED 1994-05-16 12:00:00 NR 5.70000 152.300 main 954 952 O_____________ jtwc_wp WP041994 5.70000 152.300 15 -1 11 294
1994134N05161 1994 33 WP MM NOT_NAMED 1994-05-16 15:00:00 NR 5.94251 151.793 main 968 968 P_____________ WP041994 5.94251 151.793 15 -1 11 297
1994134N05161 1994 33 WP MM NOT_NAMED 1994-05-16 18:00:00 NR 6.20000 151.300 main 998 997 O_____________ jtwc_wp WP041994 6.20000 151.300 15 -1 10 298
1994134N05161 1994 33 WP MM NOT_NAMED 1994-05-16 21:00:00 NR 6.39983 150.922 main 1019 1019 P_____________ WP041994 6.39983 150.922 15 -1 9 297
1994134N05161 1994 33 WP MM NOT_NAMED 1994-05-17 00:00:00 NR 6.60000 150.500 main 1034 1030 O_____________ jtwc_wp WP041994 6.60000 150.500 15 -1 12 292
1994134N05161 1994 33 WP MM NOT_NAMED 1994-05-17 03:00:00 NR 6.83522 149.835 main 1032 1032 P_____________ WP041994 6.83522 149.835 15 -1 14 291
1994134N05161 1994 33 WP MM NOT_NAMED 1994-05-17 06:00:00 NR 7.10000 149.200 main 1050 1048 O_____________ jtwc_wp WP041994 7.10000 149.200 15 -1 11 300
1994134N05161 1994 33 WP MM NOT_NAMED 1994-05-17 09:00:00 NR 7.39232 148.855 main 1077 1075 P_____________ WP041994 7.39232 148.855 15 -1 8 315
1994134N05161 1994 33 WP MM NOT_NAMED 1994-05-17 12:00:00 NR 7.70000 148.600 main 1106 1104 O_____________ jtwc_wp WP041994 7.70000 148.600 15 -1 8 315
1994134N05161 1994 33 WP MM NOT_NAMED 1994-05-17 15:00:00 NR 7.99249 148.257 main 1136 1135 P_____________ WP041994 7.99249 148.257 15 -1 9 311
1994134N05161 1994 33 WP MM NOT_NAMED 1994-05-17 18:00:00 NR 8.30000 147.900 main 1166 1166 O_____________ jtwc_wp WP041994 8.30000 147.900 15 -1 10 313
1994134N05161 1994 33 WP MM NOT_NAMED 1994-05-17 21:00:00 NR 8.63497 147.550 main 1199 1199 P_____________ WP041994 8.63497 147.550 15 -1 10 315
1994134N05161 1994 33 WP MM NOT_NAMED 1994-05-18 00:00:00 NR 9.00000 147.200 main 1243 1243 O_____________ jtwc_wp WP041994 9.00000 147.200 15 -1 11 318
1994134N05161 1994 33 WP MM NOT_NAMED 1994-05-18 03:00:00 NR 9.41500 146.835 main 1288 1288 P_____________ WP041994 9.41500 146.835 15 -1 11 319
1994134N05161 1994 33 WP MM NOT_NAMED 1994-05-18 06:00:00 NR 9.80000 146.500 main 1333 1333 O_____________ jtwc_wp WP041994 9.80000 146.500 15 -1 9 317
1994134N05161 1994 33 WP MM NOT_NAMED 1994-05-18 09:00:00 NR 10.0725 146.205 main 1367 1367 P_____________ WP041994 10.0725 146.205 15 -1 7 315
1994134N05161 1994 33 WP MM NOT_NAMED 1994-05-18 12:00:00 NR 10.3000 146.000 main 1391 1391 O_____________ jtwc_wp WP041994 10.3000 146.000 15 -1 6 334
1994134N05161 1994 33 WP MM NOT_NAMED 1994-05-18 15:00:00 NR 10.5724 145.957 main 1424 1424 P_____________ WP041994 10.5724 145.957 15 -1 5 349
1994134N05161 1994 33 WP MM NOT_NAMED 1994-05-18 18:00:00 NR 10.8000 145.900 main 1447 1447 O_____________ jtwc_wp WP041994 10.8000 145.900 15 -1 5 319
1994134N05161 1994 33 WP MM NOT_NAMED 1994-05-18 21:00:00 NR 10.9375 145.638 main 1460 1460 P_____________ WP041994 10.9375 145.638 15 -1 6 289
1994134N05161 1994 33 WP MM NOT_NAMED 1994-05-19 00:00:00 NR 11.0000 145.300 main 1474 1474 O_____________ jtwc_wp WP041994 11.0000 145.300 15 -1 6 277
1994134N05161 1994 33 WP MM NOT_NAMED 1994-05-19 03:00:00 NR 11.0149 145.022 main 1478 1478 P_____________ WP041994 11.0149 145.022 15 -1 6 270
1994134N05161 1994 33 WP MM NOT_NAMED 1994-05-19 06:00:00 NR 11.0000 144.700 main 1482 1482 O_____________ jtwc_wp WP041994 11.0000 144.700 15 -1 7 269
1994134N05161 1994 33 WP MM NOT_NAMED 1994-05-19 09:00:00 NR 10.9999 144.287 main 1489 1489 P_____________ WP041994 10.9999 144.287 15 -1 9 270
1994134N05161 1994 33 WP MM NOT_NAMED 1994-05-19 12:00:00 NR 11.0000 143.800 main 1500 1500 O_____________ jtwc_wp WP041994 11.0000 143.800 15 -1 10 271
1994134N05161 1994 33 WP MM NOT_NAMED 1994-05-19 15:00:00 NR 11.0223 143.295 main 1512 1497 P_____________ WP041994 11.0223 143.295 15 -1 11 270
1994134N05161 1994 33 WP MM NOT_NAMED 1994-05-19 18:00:00 NR 11.0000 142.700 main 1497 1462 O_____________ jtwc_wp WP041994 11.0000 142.700 15 -1 14 264
1994134N05161 1994 33 WP MM NOT_NAMED 1994-05-19 21:00:00 NR 10.8803 141.927 main 1459 1415 P_____________ WP041994 10.8803 141.927 15 -1 15 258
1994134N05161 1994 33 WP MM NOT_NAMED 1994-05-20 00:00:00 NR 10.7000 141.200 main 1415 1381 O_____________ jtwc_wp WP041994 10.7000 141.200 15 -1 11 251
1994134N05161 1994 33 WP MM NOT_NAMED 1994-05-20 03:00:00 NR 10.5289 140.875 main 1381 1339 P_____________ WP041994 10.5289 140.875 15 -1 9 243
1994134N05161 1994 33 WP MM NOT_NAMED 1994-05-20 06:00:00 NR 10.3000 140.400 main 1339 1267 O_____________ jtwc_wp WP041994 10.3000 140.400 15 -1 18 251
1994134N05161 1994 33 WP MM NOT_NAMED 1994-05-20 09:00:00 NR 9.96653 139.179 main 1263 1184 P_____________ WP041994 9.96653 139.179 15 -1 26 254
1994134N05161 1994 33 WP MM NOT_NAMED 1994-05-20 12:00:00 NR 9.60000 137.900 main 1181 1134 O_____________ jtwc_wp WP041994 9.60000 137.900 15 -1 21 251
1994134N05161 1994 33 WP MM NOT_NAMED 1994-05-20 15:00:00 NR 9.28423 137.203 main 1134 1093 P_____________ WP041994 9.28423 137.203 15 -1 13 243
1994134N05161 1994 33 WP MM NOT_NAMED 1994-05-20 18:00:00 NR 9.00000 136.700 main 1093 1053 O_____________ jtwc_wp WP041994 9.00000 136.700 15 -1 12 244
1994134N05161 1994 33 WP MM NOT_NAMED 1994-05-20 21:00:00 NR 8.74997 136.085 main 1052 984 P_____________ WP041994 8.74997 136.085 15 -1 13 247
1994134N05161 1994 33 WP MM NOT_NAMED 1994-05-21 00:00:00 NR 8.50000 135.500 main 984 927 O_____________ jtwc_wp WP041994 8.50000 135.500 15 -1 12 242
1994134N05161 1994 33 WP MM NOT_NAMED 1994-05-21 03:00:00 NR 8.18482 135.000 main 927 871 P_____________ WP041994 8.18482 135.000 15 -1 12 239
1994134N05161 1994 33 WP MM NOT_NAMED 1994-05-21 06:00:00 NR 7.90000 134.500 main 871 805 O_____________ jtwc_wp WP041994 7.90000 134.500 15 -1 12 246
1994134N05161 1994 33 WP MM NOT_NAMED 1994-05-21 09:00:00 NR 7.69751 133.908 main 805 739 P_____________ WP041994 7.69751 133.908 15 -1 12 256
1994134N05161 1994 33 WP MM NOT_NAMED 1994-05-21 12:00:00 NR 7.60000 133.300 main 739 683 O_____________ jtwc_wp WP041994 7.60000 133.300 15 -1 12 266
1994134N05161 1994 33 WP MM NOT_NAMED 1994-05-21 15:00:00 NR 7.61245 132.728 main 672 617 P_____________ WP041994 7.61245 132.728 15 -1 11 275
1994134N05161 1994 33 WP MM NOT_NAMED 1994-05-21 18:00:00 NR 7.70000 132.200 main 617 562 O_____________ jtwc_wp WP041994 7.70000 132.200 15 -1 10 280
1994134N05161 1994 33 WP MM NOT_NAMED 1994-05-21 21:00:00 NR 7.79248 131.705 main 562 518 P_____________ WP041994 7.79248 131.705 15 -1 9 283
1994134N05161 1994 33 WP MM NOT_NAMED 1994-05-22 00:00:00 NR 7.90000 131.300 main 518 486 O_____________ jtwc_wp WP041994 7.90000 131.300 15 -1 7 287
1994134N05161 1994 33 WP MM NOT_NAMED 1994-05-22 03:00:00 NR 7.99992 131.020 main 486 465 P_____________ WP041994 7.99992 131.020 15 -1 5 292
1994134N05161 1994 33 WP MM NOT_NAMED 1994-05-22 06:00:00 NR 8.10000 130.800 main 465 443 O_____________ jtwc_wp WP041994 8.10000 130.800 15 -1 5 291
1994134N05161 1994 33 WP MM NOT_NAMED 1994-05-22 09:00:00 NR 8.17747 130.557 main 444 413 P_____________ WP041994 8.17747 130.557 15 -1 5 292
1994134N05161 1994 33 WP MM NOT_NAMED 1994-05-22 12:00:00 NR 8.30000 130.300 main 413 385 O_____________ jtwc_wp WP041994 8.30000 130.300 15 -1 7 303
1994134N05161 1994 33 WP MM NOT_NAMED 1994-05-22 15:00:00 NR 8.53503 129.993 main 385 363 P_____________ WP041994 8.53503 129.993 15 -1 8 310
1994134N05161 1994 33 WP MM NOT_NAMED 1994-05-22 18:00:00 NR 8.80000 129.700 main 363 349 O_____________ jtwc_wp WP041994 8.80000 129.700 15 -1 7 314
1994134N05161 1994 33 WP MM NOT_NAMED 1994-05-22 21:00:00 NR 8.99993 129.500 main 349 332 P_____________ WP041994 8.99993 129.500 15 -1 6 315
1994134N05161 1994 33 WP MM NOT_NAMED 1994-05-23 00:00:00 NR 9.20000 129.300 main 332 304 O_____________ jtwc_wp WP041994 9.20000 129.300 15 -1 7 312
1994134N05161 1994 33 WP MM NOT_NAMED 1994-05-23 03:00:00 NR 9.44254 129.000 main 304 280 P_____________ WP041994 9.44254 129.000 15 -1 8 310
1994134N05161 1994 33 WP MM NOT_NAMED 1994-05-23 06:00:00 NR 9.70000 128.700 main 280 264 O_____________ jtwc_wp WP041994 9.70000 128.700 15 -1 7 316
1994134N05161 1994 33 WP MM NOT_NAMED 1994-05-23 09:00:00 NR 9.94991 128.507 main 264 256 P_____________ WP041994 9.94991 128.507 17 -1 6 322
1994134N05161 1994 33 WP MM NOT_NAMED 1994-05-23 12:00:00 NR 10.2000 128.300 main 256 238 O_____________ jtwc_wp WP041994 10.2000 128.300 20 -1 7 314
1994134N05161 1994 33 WP MM NOT_NAMED 1994-05-23 15:00:00 NR 10.4575 127.980 main 245 199 P_____________ WP041994 10.4575 127.980 22 -1 9 306
1994134N05161 1994 33 WP MM NOT_NAMED 1994-05-23 18:00:00 NR 10.7000 127.600 main 199 164 O_____________ jtwc_wp WP041994 10.7000 127.600 25 -1 8 304
1994134N05161 1994 33 WP MM NOT_NAMED 1994-05-23 21:00:00 NR 10.9069 127.297 main 164 109 P_____________ WP041994 10.9069 127.297 25 -1 9 297
1994134N05161 1994 33 WP MM NOT_NAMED 1994-05-24 00:00:00 NR 11.1000 126.800 main 109 31 O_____________ jtwc_wp WP041994 11.1000 126.800 25 -1 15 285
1994134N05161 1994 33 WP MM NOT_NAMED 1994-05-24 03:00:00 NR 11.3008 125.845 main 24 0 P_____________ WP041994 11.3008 125.845 25 -1 20 282
1994134N05161 1994 33 WP MM NOT_NAMED 1994-05-24 06:00:00 NR 11.5000 124.800 main 0 0 O_____________ jtwc_wp WP041994 11.5000 124.800 XX 25 -5 18 283
1994134N05161 1994 33 WP MM NOT_NAMED 1994-05-24 09:00:00 NR 11.6994 124.062 main 0 0 P_____________ WP041994 11.6994 124.062 XX 27 -5 14 286
1994134N05161 1994 33 WP MM NOT_NAMED 1994-05-24 12:00:00 NR 11.9000 123.400 main 24 0 O_____________ jtwc_wp WP041994 11.9000 123.400 XX 30 -5 14 286
1994134N05161 1994 33 WP MM NOT_NAMED 1994-05-24 15:00:00 NR 12.0999 122.657 main 55 44 P_____________ WP041994 12.0999 122.657 XX 30 -5 15 285
1994134N05161 1994 33 WP MM NOT_NAMED 1994-05-24 18:00:00 NR 12.3000 121.900 main 46 0 O_____________ jtwc_wp WP041994 12.3000 121.900 XX 30 -5 15 285
1994134N05161 1994 33 WP MM NOT_NAMED 1994-05-24 21:00:00 NR 12.4998 121.150 main 0 0 P_____________ WP041994 12.4998 121.150 XX 27 -5 15 285
1994134N05161 1994 33 WP MM NOT_NAMED 1994-05-25 00:00:00 NR 12.7000 120.400 main 43 43 O_____________ jtwc_wp WP041994 12.7000 120.400 XX 25 -5 15 285
1994134N05161 1994 33 WP MM NOT_NAMED 1994-05-25 03:00:00 NR 12.8922 119.657 main 85 85 P_____________ WP041994 12.8922 119.657 XX 25 -5 15 285
1994134N05161 1994 33 WP MM NOT_NAMED 1994-05-25 06:00:00 NR 13.1000 118.900 main 155 155 O_____________ jtwc_wp WP041994 13.1000 118.900 XX 25 -5 16 287
1994134N05161 1994 33 WP MM NOT_NAMED 1994-05-25 09:00:00 NR 13.3423 118.107 main 238 238 P_____________ WP041994 13.3423 118.107 XX 25 -5 16 288
1994134N05161 1994 33 WP MM NOT_NAMED 1994-05-25 12:00:00 NR 13.6000 117.300 main 325 325 O_____________ jtwc_wp WP041994 13.6000 117.300 XX 25 -5 16 288
1994134N05161 1994 33 WP MM NOT_NAMED 1994-05-25 15:00:00 NR 13.8497 116.500 main 403 400 P_____________ WP041994 13.8497 116.500 XX 25 -5 15 288
1994134N05161 1994 33 WP MM NOT_NAMED 1994-05-25 18:00:00 NR 14.0800 115.800 main 464 464 O__O__________ jtwc_wp WP041994 14.1000 115.700 XX 25 -5 14.0000 116.200 TD 25 1002 16 286
1994134N05161 1994 33 WP MM NOT_NAMED 1994-05-25 21:00:00 NR 14.2986 114.928 main 549 511 P__P__________ WP041994 14.3572 114.900 XX 25 -5 14.1813 114.985 TD 27 1001 18 284
1994134N05161 1994 33 WP MM NOT_NAMED 1994-05-26 00:00:00 NR 14.5143 113.971 main 511 408 O__O__________ jtwc_wp WP041994 14.6000 114.100 XX 25 -5 14.4000 113.800 TD 30 1000 19 284
1994134N05161 1994 33 WP MM NOT_NAMED 1994-05-26 03:00:00 NR 14.7521 112.985 main 411 335 P__P__________ WP041994 14.8072 113.300 XX 25 -5 14.6970 112.670 TD 30 1000 19 286
1994134N05161 1994 33 WP MM NOT_NAMED 1994-05-26 06:00:00 NR 15.0429 112.114 main 324 256 O__O__________ jtwc_wp WP041994 15.0000 112.500 XX 25 -5 15.1000 111.600 TD 30 1000 17 290
1994134N05161 1994 33 WP MM NOT_NAMED 1994-05-26 09:00:00 NR 15.3443 111.329 main 245 193 P__P__________ WP041994 15.2072 111.700 XX 25 -5 15.6183 110.586 TD 27 1001 15 290
1994134N05161 1994 33 WP MM NOT_NAMED 1994-05-26 12:00:00 NR 15.5600 110.640 main 187 136 O__O__________ jtwc_wp WP041994 15.4000 110.900 XX 25 -5 16.2000 109.600 TD 25 1002 12 280
1994134N05161 1994 33 WP MM NOT_NAMED 1994-05-26 15:00:00 NR 15.5570 110.115 main 136 69 P_____________ WP041994 15.5570 110.115 XX 25 -5 TD 13 276
1994134N05161 1994 33 WP MM NOT_NAMED 1994-05-26 18:00:00 NR 15.7000 109.300 main 69 10 O_____________ jtwc_wp WP041994 15.7000 109.300 XX 25 -5 17 280
1994134N05161 1994 33 WP MM NOT_NAMED 1994-05-26 21:00:00 NR 15.8484 108.420 main 0 0 P_____________ WP041994 15.8484 108.420 XX 22 -5 18 280
1994134N05161 1994 33 WP MM NOT_NAMED 1994-05-27 00:00:00 NR 16.0000 107.500 main 0 O_____________ jtwc_wp WP041994 16.0000 107.500 20 -1 18 280

デジタル台風データ・検索

IBTrACS Databaseについて

本データベースは、米国NOAAが公開する1842年以降の世界の熱帯低気圧のベストトラックデータアーカイブInternational Best Track Archive for Climate Stewardship (IBTrACS)を、ウェブで閲覧しやすい形式に変換したものです。

最終更新日:2021-12-06